sensor_id;sensor_type;location;lat;lon;timestamp;P1;durP1;ratioP1;P2;durP2;ratioP2
10677;SDS011;5387;48.722;9.110;2022-08-02T00:01:43;3.70;;;2.22;;
10677;SDS011;5387;48.722;9.110;2022-08-02T00:04:10;3.03;;;2.70;;
10677;SDS011;5387;48.722;9.110;2022-08-02T00:06:37;2.17;;;2.08;;
10677;SDS011;5387;48.722;9.110;2022-08-02T00:09:05;2.33;;;2.08;;
10677;SDS011;5387;48.722;9.110;2022-08-02T00:11:32;2.80;;;2.55;;
10677;SDS011;5387;48.722;9.110;2022-08-02T00:13:59;4.85;;;2.60;;
10677;SDS011;5387;48.722;9.110;2022-08-02T00:16:26;3.70;;;3.40;;
10677;SDS011;5387;48.722;9.110;2022-08-02T00:18:53;3.13;;;2.92;;
10677;SDS011;5387;48.722;9.110;2022-08-02T00:21:19;3.55;;;3.08;;
10677;SDS011;5387;48.722;9.110;2022-08-02T00:23:46;3.45;;;2.90;;
10677;SDS011;5387;48.722;9.110;2022-08-02T00:26:15;3.85;;;3.15;;
10677;SDS011;5387;48.722;9.110;2022-08-02T00:28:41;3.17;;;2.80;;
10677;SDS011;5387;48.722;9.110;2022-08-02T00:31:08;3.28;;;3.00;;
10677;SDS011;5387;48.722;9.110;2022-08-02T00:33:35;2.50;;;2.30;;
10677;SDS011;5387;48.722;9.110;2022-08-02T00:36:02;3.65;;;3.08;;
10677;SDS011;5387;48.722;9.110;2022-08-02T00:38:29;3.53;;;2.95;;
10677;SDS011;5387;48.722;9.110;2022-08-02T00:40:56;2.72;;;2.53;;
10677;SDS011;5387;48.722;9.110;2022-08-02T00:43:24;3.15;;;2.80;;
10677;SDS011;5387;48.722;9.110;2022-08-02T00:45:51;7.68;;;2.90;;
10677;SDS011;5387;48.722;9.110;2022-08-02T00:48:18;5.03;;;2.45;;
10677;SDS011;5387;48.722;9.110;2022-08-02T00:50:45;3.10;;;2.80;;
10677;SDS011;5387;48.722;9.110;2022-08-02T00:53:12;3.00;;;2.40;;
10677;SDS011;5387;48.722;9.110;2022-08-02T00:55:38;5.47;;;2.45;;
10677;SDS011;5387;48.722;9.110;2022-08-02T00:58:05;2.72;;;2.53;;
10677;SDS011;5387;48.722;9.110;2022-08-02T01:00:33;3.88;;;2.60;;
10677;SDS011;5387;48.722;9.110;2022-08-02T01:03:00;2.35;;;2.15;;
10677;SDS011;5387;48.722;9.110;2022-08-02T01:05:27;5.80;;;2.28;;
10677;SDS011;5387;48.722;9.110;2022-08-02T01:07:54;4.65;;;2.25;;
10677;SDS011;5387;48.722;9.110;2022-08-02T01:10:21;2.50;;;2.30;;
10677;SDS011;5387;48.722;9.110;2022-08-02T01:12:48;4.63;;;2.15;;
10677;SDS011;5387;48.722;9.110;2022-08-02T01:15:15;7.70;;;2.42;;
10677;SDS011;5387;48.722;9.110;2022-08-02T01:17:46;2.42;;;1.95;;
10677;SDS011;5387;48.722;9.110;2022-08-02T01:23:30;2.97;;;1.90;;
10677;SDS011;5387;48.722;9.110;2022-08-02T01:26:12;2.45;;;2.13;;
10677;SDS011;5387;48.722;9.110;2022-08-02T01:28:53;4.88;;;2.20;;
10677;SDS011;5387;48.722;9.110;2022-08-02T01:31:26;1.77;;;1.67;;
10677;SDS011;5387;48.722;9.110;2022-08-02T01:33:58;1.80;;;1.67;;
10677;SDS011;5387;48.722;9.110;2022-08-02T01:36:30;2.05;;;1.92;;
10677;SDS011;5387;48.722;9.110;2022-08-02T01:39:01;4.25;;;2.17;;
10677;SDS011;5387;48.722;9.110;2022-08-02T01:41:30;2.38;;;1.90;;
10677;SDS011;5387;48.722;9.110;2022-08-02T01:44:00;1.75;;;1.65;;
10677;SDS011;5387;48.722;9.110;2022-08-02T01:46:28;1.90;;;1.80;;
10677;SDS011;5387;48.722;9.110;2022-08-02T01:48:58;1.88;;;1.30;;
10677;SDS011;5387;48.722;9.110;2022-08-02T01:51:29;2.05;;;1.70;;
10677;SDS011;5387;48.722;9.110;2022-08-02T01:54:17;1.77;;;1.67;;
10677;SDS011;5387;48.722;9.110;2022-08-02T01:56:47;1.65;;;1.55;;
10677;SDS011;5387;48.722;9.110;2022-08-02T01:59:17;1.90;;;1.75;;
10677;SDS011;5387;48.722;9.110;2022-08-02T02:01:48;2.85;;;1.90;;
10677;SDS011;5387;48.722;9.110;2022-08-02T02:04:17;4.65;;;1.60;;
10677;SDS011;5387;48.722;9.110;2022-08-02T02:06:47;1.50;;;1.30;;
10677;SDS011;5387;48.722;9.110;2022-08-02T02:09:15;2.35;;;1.65;;
10677;SDS011;5387;48.722;9.110;2022-08-02T02:11:43;1.50;;;1.40;;
10677;SDS011;5387;48.722;9.110;2022-08-02T02:14:11;1.80;;;1.70;;
10677;SDS011;5387;48.722;9.110;2022-08-02T02:16:41;1.75;;;1.65;;
10677;SDS011;5387;48.722;9.110;2022-08-02T02:19:11;1.60;;;1.50;;
10677;SDS011;5387;48.722;9.110;2022-08-02T02:21:41;1.90;;;1.80;;
10677;SDS011;5387;48.722;9.110;2022-08-02T02:24:08;5.07;;;2.15;;
10677;SDS011;5387;48.722;9.110;2022-08-02T02:26:35;6.20;;;1.83;;
10677;SDS011;5387;48.722;9.110;2022-08-02T02:29:04;1.70;;;1.60;;
10677;SDS011;5387;48.722;9.110;2022-08-02T02:31:33;2.25;;;1.63;;
10677;SDS011;5387;48.722;9.110;2022-08-02T02:34:03;1.90;;;1.80;;
10677;SDS011;5387;48.722;9.110;2022-08-02T02:36:34;3.33;;;1.58;;
10677;SDS011;5387;48.722;9.110;2022-08-02T02:39:04;2.13;;;1.92;;
10677;SDS011;5387;48.722;9.110;2022-08-02T02:41:35;2.35;;;2.00;;
10677;SDS011;5387;48.722;9.110;2022-08-02T02:44:04;2.15;;;1.95;;
10677;SDS011;5387;48.722;9.110;2022-08-02T02:46:34;1.65;;;1.55;;
10677;SDS011;5387;48.722;9.110;2022-08-02T02:49:04;1.73;;;1.63;;
10677;SDS011;5387;48.722;9.110;2022-08-02T02:51:32;2.00;;;1.77;;
10677;SDS011;5387;48.722;9.110;2022-08-02T02:53:59;3.55;;;1.67;;
10677;SDS011;5387;48.722;9.110;2022-08-02T02:56:27;2.25;;;1.75;;
10677;SDS011;5387;48.722;9.110;2022-08-02T02:58:54;2.10;;;1.65;;
10677;SDS011;5387;48.722;9.110;2022-08-02T03:01:24;1.77;;;1.55;;
10677;SDS011;5387;48.722;9.110;2022-08-02T03:03:56;1.65;;;1.55;;
10677;SDS011;5387;48.722;9.110;2022-08-02T03:06:27;1.75;;;1.65;;
10677;SDS011;5387;48.722;9.110;2022-08-02T03:08:54;1.73;;;1.63;;
10677;SDS011;5387;48.722;9.110;2022-08-02T03:11:21;1.70;;;1.60;;
10677;SDS011;5387;48.722;9.110;2022-08-02T03:13:49;1.80;;;1.70;;
10677;SDS011;5387;48.722;9.110;2022-08-02T03:16:17;1.45;;;1.35;;
10677;SDS011;5387;48.722;9.110;2022-08-02T03:18:44;1.65;;;1.55;;
10677;SDS011;5387;48.722;9.110;2022-08-02T03:21:11;1.65;;;1.55;;
10677;SDS011;5387;48.722;9.110;2022-08-02T03:23:40;4.93;;;1.90;;
10677;SDS011;5387;48.722;9.110;2022-08-02T03:26:08;2.28;;;1.98;;
10677;SDS011;5387;48.722;9.110;2022-08-02T03:28:35;2.15;;;1.60;;
10677;SDS011;5387;48.722;9.110;2022-08-02T03:31:02;1.73;;;1.58;;
10677;SDS011;5387;48.722;9.110;2022-08-02T03:33:29;2.75;;;1.63;;
10677;SDS011;5387;48.722;9.110;2022-08-02T03:35:58;1.63;;;1.52;;
10677;SDS011;5387;48.722;9.110;2022-08-02T03:38:27;2.00;;;1.90;;
10677;SDS011;5387;48.722;9.110;2022-08-02T03:40:57;1.88;;;1.77;;
10677;SDS011;5387;48.722;9.110;2022-08-02T03:43:25;3.80;;;1.95;;
10677;SDS011;5387;48.722;9.110;2022-08-02T03:45:53;5.05;;;1.70;;
10677;SDS011;5387;48.722;9.110;2022-08-02T03:48:22;2.15;;;1.95;;
10677;SDS011;5387;48.722;9.110;2022-08-02T03:50:50;2.95;;;1.90;;
10677;SDS011;5387;48.722;9.110;2022-08-02T03:53:17;1.40;;;1.30;;
10677;SDS011;5387;48.722;9.110;2022-08-02T03:55:45;1.98;;;1.77;;
10677;SDS011;5387;48.722;9.110;2022-08-02T03:58:18;2.38;;;1.70;;
10677;SDS011;5387;48.722;9.110;2022-08-02T04:00:46;2.83;;;2.00;;
10677;SDS011;5387;48.722;9.110;2022-08-02T04:03:13;1.30;;;1.30;;
10677;SDS011;5387;48.722;9.110;2022-08-02T04:05:40;3.10;;;1.58;;
10677;SDS011;5387;48.722;9.110;2022-08-02T04:08:07;1.80;;;1.70;;
10677;SDS011;5387;48.722;9.110;2022-08-02T04:10:34;1.90;;;1.80;;
10677;SDS011;5387;48.722;9.110;2022-08-02T04:13:15;1.95;;;1.85;;
10677;SDS011;5387;48.722;9.110;2022-08-02T04:15:43;2.95;;;1.90;;
10677;SDS011;5387;48.722;9.110;2022-08-02T04:18:11;2.20;;;2.05;;
10677;SDS011;5387;48.722;9.110;2022-08-02T04:20:39;2.42;;;2.17;;
10677;SDS011;5387;48.722;9.110;2022-08-02T04:23:09;2.78;;;2.20;;
10677;SDS011;5387;48.722;9.110;2022-08-02T04:25:39;3.22;;;2.10;;
10677;SDS011;5387;48.722;9.110;2022-08-02T04:28:08;2.17;;;1.88;;
10677;SDS011;5387;48.722;9.110;2022-08-02T04:30:36;2.40;;;2.20;;
10677;SDS011;5387;48.722;9.110;2022-08-02T04:33:04;4.22;;;2.35;;
10677;SDS011;5387;48.722;9.110;2022-08-02T04:35:32;2.38;;;2.00;;
10677;SDS011;5387;48.722;9.110;2022-08-02T04:37:59;2.08;;;1.98;;
10677;SDS011;5387;48.722;9.110;2022-08-02T04:40:26;3.25;;;1.73;;
10677;SDS011;5387;48.722;9.110;2022-08-02T04:42:53;2.10;;;1.95;;
10677;SDS011;5387;48.722;9.110;2022-08-02T04:45:20;2.83;;;2.30;;
10677;SDS011;5387;48.722;9.110;2022-08-02T04:47:48;3.15;;;1.92;;
10677;SDS011;5387;48.722;9.110;2022-08-02T04:50:16;2.53;;;2.33;;
10677;SDS011;5387;48.722;9.110;2022-08-02T04:52:44;1.73;;;1.63;;
10677;SDS011;5387;48.722;9.110;2022-08-02T04:55:11;5.45;;;2.20;;
10677;SDS011;5387;48.722;9.110;2022-08-02T04:57:39;1.60;;;1.50;;
10677;SDS011;5387;48.722;9.110;2022-08-02T05:00:21;6.28;;;2.15;;
10677;SDS011;5387;48.722;9.110;2022-08-02T05:02:49;2.03;;;1.80;;
10677;SDS011;5387;48.722;9.110;2022-08-02T05:05:19;5.40;;;2.22;;
10677;SDS011;5387;48.722;9.110;2022-08-02T05:07:46;4.72;;;2.42;;
10677;SDS011;5387;48.722;9.110;2022-08-02T05:10:13;2.05;;;1.85;;
10677;SDS011;5387;48.722;9.110;2022-08-02T05:12:40;1.95;;;1.85;;
10677;SDS011;5387;48.722;9.110;2022-08-02T05:15:07;2.10;;;2.00;;
10677;SDS011;5387;48.722;9.110;2022-08-02T05:17:36;2.17;;;1.92;;
10677;SDS011;5387;48.722;9.110;2022-08-02T05:20:03;3.03;;;1.65;;
10677;SDS011;5387;48.722;9.110;2022-08-02T05:22:32;2.15;;;1.95;;
10677;SDS011;5387;48.722;9.110;2022-08-02T05:24:59;2.03;;;1.83;;
10677;SDS011;5387;48.722;9.110;2022-08-02T05:27:26;3.03;;;2.08;;
10677;SDS011;5387;48.722;9.110;2022-08-02T05:29:53;2.72;;;1.90;;
10677;SDS011;5387;48.722;9.110;2022-08-02T05:32:21;3.50;;;2.20;;
10677;SDS011;5387;48.722;9.110;2022-08-02T05:34:48;6.82;;;1.98;;
10677;SDS011;5387;48.722;9.110;2022-08-02T05:37:15;4.68;;;2.50;;
10677;SDS011;5387;48.722;9.110;2022-08-02T05:39:43;2.50;;;2.25;;
10677;SDS011;5387;48.722;9.110;2022-08-02T05:42:10;4.13;;;2.38;;
10677;SDS011;5387;48.722;9.110;2022-08-02T05:44:37;2.03;;;1.92;;
10677;SDS011;5387;48.722;9.110;2022-08-02T05:47:04;2.05;;;1.95;;
10677;SDS011;5387;48.722;9.110;2022-08-02T05:49:31;2.35;;;2.20;;
10677;SDS011;5387;48.722;9.110;2022-08-02T05:51:59;2.92;;;2.22;;
10677;SDS011;5387;48.722;9.110;2022-08-02T05:54:34;3.08;;;2.50;;
10677;SDS011;5387;48.722;9.110;2022-08-02T05:57:08;3.05;;;2.20;;
10677;SDS011;5387;48.722;9.110;2022-08-02T05:59:44;2.55;;;2.35;;
10677;SDS011;5387;48.722;9.110;2022-08-02T06:02:23;2.00;;;1.90;;
10677;SDS011;5387;48.722;9.110;2022-08-02T06:04:55;3.05;;;2.35;;
10677;SDS011;5387;48.722;9.110;2022-08-02T06:07:28;2.80;;;2.20;;
10677;SDS011;5387;48.722;9.110;2022-08-02T06:10:01;4.55;;;2.70;;
10677;SDS011;5387;48.722;9.110;2022-08-02T06:12:30;2.20;;;2.00;;
10677;SDS011;5387;48.722;9.110;2022-08-02T06:15:01;3.08;;;2.30;;
10677;SDS011;5387;48.722;9.110;2022-08-02T06:17:29;2.47;;;1.98;;
10677;SDS011;5387;48.722;9.110;2022-08-02T06:19:57;1.80;;;1.70;;
10677;SDS011;5387;48.722;9.110;2022-08-02T06:22:26;3.97;;;2.35;;
10677;SDS011;5387;48.722;9.110;2022-08-02T06:24:54;2.42;;;2.22;;
10677;SDS011;5387;48.722;9.110;2022-08-02T06:27:21;2.17;;;1.98;;
10677;SDS011;5387;48.722;9.110;2022-08-02T06:29:53;3.30;;;2.65;;
10677;SDS011;5387;48.722;9.110;2022-08-02T06:32:20;2.17;;;1.98;;
10677;SDS011;5387;48.722;9.110;2022-08-02T06:34:47;3.10;;;2.55;;
10677;SDS011;5387;48.722;9.110;2022-08-02T06:37:17;2.08;;;1.98;;
10677;SDS011;5387;48.722;9.110;2022-08-02T06:39:53;2.60;;;2.30;;
10677;SDS011;5387;48.722;9.110;2022-08-02T06:42:31;3.97;;;2.55;;
10677;SDS011;5387;48.722;9.110;2022-08-02T06:45:04;4.07;;;3.47;;
10677;SDS011;5387;48.722;9.110;2022-08-02T06:47:32;3.53;;;3.10;;
10677;SDS011;5387;48.722;9.110;2022-08-02T06:49:59;6.55;;;3.28;;
10677;SDS011;5387;48.722;9.110;2022-08-02T06:52:26;4.05;;;2.78;;
10677;SDS011;5387;48.722;9.110;2022-08-02T06:54:56;3.50;;;3.17;;
10677;SDS011;5387;48.722;9.110;2022-08-02T06:57:24;3.10;;;2.85;;
10677;SDS011;5387;48.722;9.110;2022-08-02T06:59:51;3.20;;;2.90;;
10677;SDS011;5387;48.722;9.110;2022-08-02T07:02:19;2.97;;;2.78;;
10677;SDS011;5387;48.722;9.110;2022-08-02T07:04:46;3.38;;;3.08;;
10677;SDS011;5387;48.722;9.110;2022-08-02T07:07:13;4.25;;;3.13;;
10677;SDS011;5387;48.722;9.110;2022-08-02T07:09:39;4.15;;;3.22;;
10677;SDS011;5387;48.722;9.110;2022-08-02T07:12:06;3.90;;;3.53;;
10677;SDS011;5387;48.722;9.110;2022-08-02T07:14:33;2.83;;;2.33;;
10677;SDS011;5387;48.722;9.110;2022-08-02T07:17:00;3.45;;;2.88;;
10677;SDS011;5387;48.722;9.110;2022-08-02T07:19:28;3.97;;;2.97;;
10677;SDS011;5387;48.722;9.110;2022-08-02T07:21:55;3.10;;;2.67;;
10677;SDS011;5387;48.722;9.110;2022-08-02T07:24:22;3.42;;;3.05;;
10677;SDS011;5387;48.722;9.110;2022-08-02T07:26:49;3.63;;;3.33;;
10677;SDS011;5387;48.722;9.110;2022-08-02T07:29:16;4.43;;;3.38;;
10677;SDS011;5387;48.722;9.110;2022-08-02T07:31:42;3.13;;;2.83;;
10677;SDS011;5387;48.722;9.110;2022-08-02T07:34:09;3.38;;;2.72;;
10677;SDS011;5387;48.722;9.110;2022-08-02T07:36:37;3.50;;;3.00;;
10677;SDS011;5387;48.722;9.110;2022-08-02T07:39:04;3.30;;;3.00;;
10677;SDS011;5387;48.722;9.110;2022-08-02T07:41:31;3.13;;;2.92;;
10677;SDS011;5387;48.722;9.110;2022-08-02T07:43:59;4.25;;;3.08;;
10677;SDS011;5387;48.722;9.110;2022-08-02T07:46:26;3.45;;;3.03;;
10677;SDS011;5387;48.722;9.110;2022-08-02T07:48:53;3.33;;;3.03;;
10677;SDS011;5387;48.722;9.110;2022-08-02T07:51:19;3.35;;;3.00;;
10677;SDS011;5387;48.722;9.110;2022-08-02T07:53:48;2.95;;;2.65;;
10677;SDS011;5387;48.722;9.110;2022-08-02T07:56:15;2.90;;;2.60;;
10677;SDS011;5387;48.722;9.110;2022-08-02T07:58:41;6.70;;;3.00;;
10677;SDS011;5387;48.722;9.110;2022-08-02T08:01:08;3.38;;;3.00;;
10677;SDS011;5387;48.722;9.110;2022-08-02T08:03:35;3.15;;;2.83;;
10677;SDS011;5387;48.722;9.110;2022-08-02T08:06:02;3.00;;;2.50;;
10677;SDS011;5387;48.722;9.110;2022-08-02T08:08:29;3.20;;;2.65;;
10677;SDS011;5387;48.722;9.110;2022-08-02T08:10:57;3.70;;;2.80;;
10677;SDS011;5387;48.722;9.110;2022-08-02T08:13:24;3.50;;;2.67;;
10677;SDS011;5387;48.722;9.110;2022-08-02T08:15:51;3.83;;;2.72;;
10677;SDS011;5387;48.722;9.110;2022-08-02T08:18:18;5.60;;;2.97;;
10677;SDS011;5387;48.722;9.110;2022-08-02T08:20:45;3.22;;;2.85;;
10677;SDS011;5387;48.722;9.110;2022-08-02T08:23:12;3.13;;;2.47;;
10677;SDS011;5387;48.722;9.110;2022-08-02T08:25:39;4.63;;;3.75;;
10677;SDS011;5387;48.722;9.110;2022-08-02T08:28:07;2.92;;;2.58;;
10677;SDS011;5387;48.722;9.110;2022-08-02T08:30:34;2.58;;;2.38;;
10677;SDS011;5387;48.722;9.110;2022-08-02T08:33:01;2.92;;;2.35;;
10677;SDS011;5387;48.722;9.110;2022-08-02T08:35:28;2.55;;;2.35;;
10677;SDS011;5387;48.722;9.110;2022-08-02T08:37:55;3.35;;;2.95;;
10677;SDS011;5387;48.722;9.110;2022-08-02T08:40:23;3.42;;;2.55;;
10677;SDS011;5387;48.722;9.110;2022-08-02T08:42:51;6.50;;;2.80;;
10677;SDS011;5387;48.722;9.110;2022-08-02T08:45:19;3.83;;;2.67;;
10677;SDS011;5387;48.722;9.110;2022-08-02T08:47:47;2.88;;;2.67;;
10677;SDS011;5387;48.722;9.110;2022-08-02T08:50:18;3.30;;;2.78;;
10677;SDS011;5387;48.722;9.110;2022-08-02T08:52:47;3.00;;;2.72;;
10677;SDS011;5387;48.722;9.110;2022-08-02T08:55:18;3.00;;;2.75;;
10677;SDS011;5387;48.722;9.110;2022-08-02T08:57:48;2.85;;;2.65;;
10677;SDS011;5387;48.722;9.110;2022-08-02T09:00:16;2.92;;;2.63;;
10677;SDS011;5387;48.722;9.110;2022-08-02T09:02:44;2.40;;;2.20;;
10677;SDS011;5387;48.722;9.110;2022-08-02T09:05:12;3.03;;;2.72;;
10677;SDS011;5387;48.722;9.110;2022-08-02T09:07:41;3.95;;;2.97;;
10677;SDS011;5387;48.722;9.110;2022-08-02T09:10:31;3.20;;;3.00;;
10677;SDS011;5387;48.722;9.110;2022-08-02T09:13:04;2.70;;;2.50;;
10677;SDS011;5387;48.722;9.110;2022-08-02T09:15:40;3.55;;;2.83;;
10677;SDS011;5387;48.722;9.110;2022-08-02T09:18:10;6.78;;;2.88;;
10677;SDS011;5387;48.722;9.110;2022-08-02T09:20:50;2.80;;;2.60;;
10677;SDS011;5387;48.722;9.110;2022-08-02T09:23:19;5.32;;;2.80;;
10677;SDS011;5387;48.722;9.110;2022-08-02T09:25:54;5.22;;;3.08;;
10677;SDS011;5387;48.722;9.110;2022-08-02T09:28:24;5.85;;;2.58;;
10677;SDS011;5387;48.722;9.110;2022-08-02T09:30:55;2.83;;;2.53;;
10677;SDS011;5387;48.722;9.110;2022-08-02T09:33:25;4.78;;;2.63;;
10677;SDS011;5387;48.722;9.110;2022-08-02T09:35:58;5.47;;;2.70;;
10677;SDS011;5387;48.722;9.110;2022-08-02T09:38:26;4.32;;;2.65;;
10677;SDS011;5387;48.722;9.110;2022-08-02T09:40:53;9.48;;;3.55;;
10677;SDS011;5387;48.722;9.110;2022-08-02T09:43:20;3.70;;;3.15;;
10677;SDS011;5387;48.722;9.110;2022-08-02T09:45:47;3.35;;;2.97;;
10677;SDS011;5387;48.722;9.110;2022-08-02T09:48:14;3.30;;;3.00;;
10677;SDS011;5387;48.722;9.110;2022-08-02T09:50:42;2.75;;;2.55;;
10677;SDS011;5387;48.722;9.110;2022-08-02T09:53:11;4.43;;;3.00;;
10677;SDS011;5387;48.722;9.110;2022-08-02T09:55:39;2.80;;;2.60;;
10677;SDS011;5387;48.722;9.110;2022-08-02T09:58:16;4.07;;;2.88;;
10677;SDS011;5387;48.722;9.110;2022-08-02T10:00:53;4.93;;;3.05;;
10677;SDS011;5387;48.722;9.110;2022-08-02T10:03:20;4.88;;;3.33;;
10677;SDS011;5387;48.722;9.110;2022-08-02T10:05:50;4.03;;;3.10;;
10677;SDS011;5387;48.722;9.110;2022-08-02T10:08:18;4.45;;;3.13;;
10677;SDS011;5387;48.722;9.110;2022-08-02T10:10:45;2.95;;;2.70;;
10677;SDS011;5387;48.722;9.110;2022-08-02T10:13:12;6.55;;;2.72;;
10677;SDS011;5387;48.722;9.110;2022-08-02T10:15:39;2.63;;;2.42;;
10677;SDS011;5387;48.722;9.110;2022-08-02T10:18:07;3.10;;;2.80;;
10677;SDS011;5387;48.722;9.110;2022-08-02T10:20:36;2.72;;;2.17;;
10677;SDS011;5387;48.722;9.110;2022-08-02T10:23:10;2.65;;;2.45;;
10677;SDS011;5387;48.722;9.110;2022-08-02T10:25:39;2.50;;;2.30;;
10677;SDS011;5387;48.722;9.110;2022-08-02T10:28:07;2.13;;;2.03;;
10677;SDS011;5387;48.722;9.110;2022-08-02T10:30:35;2.60;;;2.40;;
10677;SDS011;5387;48.722;9.110;2022-08-02T10:33:06;2.47;;;2.28;;
10677;SDS011;5387;48.722;9.110;2022-08-02T10:35:36;2.70;;;2.50;;
10677;SDS011;5387;48.722;9.110;2022-08-02T10:38:04;8.45;;;2.40;;
10677;SDS011;5387;48.722;9.110;2022-08-02T10:40:49;3.28;;;2.90;;
10677;SDS011;5387;48.722;9.110;2022-08-02T10:49:00;3.08;;;2.83;;
10677;SDS011;5387;48.722;9.110;2022-08-02T10:54:23;2.90;;;2.58;;
10677;SDS011;5387;48.722;9.110;2022-08-02T10:56:54;3.10;;;2.70;;
10677;SDS011;5387;48.722;9.110;2022-08-02T10:59:22;3.65;;;2.55;;
10677;SDS011;5387;48.722;9.110;2022-08-02T11:01:50;3.53;;;2.30;;
10677;SDS011;5387;48.722;9.110;2022-08-02T11:04:17;7.65;;;2.70;;
10677;SDS011;5387;48.722;9.110;2022-08-02T11:07:05;3.15;;;2.83;;
10677;SDS011;5387;48.722;9.110;2022-08-02T11:09:33;2.53;;;2.30;;
10677;SDS011;5387;48.722;9.110;2022-08-02T11:12:02;2.58;;;2.47;;
10677;SDS011;5387;48.722;9.110;2022-08-02T11:14:31;2.50;;;2.30;;
10677;SDS011;5387;48.722;9.110;2022-08-02T11:17:07;3.15;;;2.83;;
10677;SDS011;5387;48.722;9.110;2022-08-02T11:22:44;2.83;;;2.47;;
10677;SDS011;5387;48.722;9.110;2022-08-02T11:25:28;2.67;;;2.47;;
10677;SDS011;5387;48.722;9.110;2022-08-02T11:28:08;4.78;;;2.50;;
10677;SDS011;5387;48.722;9.110;2022-08-02T11:30:36;2.97;;;2.78;;
10677;SDS011;5387;48.722;9.110;2022-08-02T11:33:04;2.42;;;2.33;;
10677;SDS011;5387;48.722;9.110;2022-08-02T11:35:35;2.40;;;2.20;;
10677;SDS011;5387;48.722;9.110;2022-08-02T11:38:13;3.00;;;2.35;;
10677;SDS011;5387;48.722;9.110;2022-08-02T11:40:44;2.38;;;2.10;;
10677;SDS011;5387;48.722;9.110;2022-08-02T11:43:20;2.65;;;2.45;;
10677;SDS011;5387;48.722;9.110;2022-08-02T11:45:48;2.58;;;2.38;;
10677;SDS011;5387;48.722;9.110;2022-08-02T11:48:28;4.05;;;2.55;;
10677;SDS011;5387;48.722;9.110;2022-08-02T11:51:03;4.07;;;2.50;;
10677;SDS011;5387;48.722;9.110;2022-08-02T11:53:33;2.90;;;2.40;;
10677;SDS011;5387;48.722;9.110;2022-08-02T11:56:06;6.28;;;2.33;;
10677;SDS011;5387;48.722;9.110;2022-08-02T11:58:34;3.08;;;2.35;;
10677;SDS011;5387;48.722;9.110;2022-08-02T12:01:01;2.60;;;2.40;;
10677;SDS011;5387;48.722;9.110;2022-08-02T12:03:32;2.28;;;2.10;;
10677;SDS011;5387;48.722;9.110;2022-08-02T12:06:00;2.65;;;2.28;;
10677;SDS011;5387;48.722;9.110;2022-08-02T12:08:29;2.58;;;2.38;;
10677;SDS011;5387;48.722;9.110;2022-08-02T12:10:56;2.22;;;2.00;;
10677;SDS011;5387;48.722;9.110;2022-08-02T12:13:26;2.33;;;2.13;;
10677;SDS011;5387;48.722;9.110;2022-08-02T12:16:10;2.83;;;2.63;;
10677;SDS011;5387;48.722;9.110;2022-08-02T12:18:55;3.50;;;3.25;;
10677;SDS011;5387;48.722;9.110;2022-08-02T12:21:39;3.40;;;3.10;;
10677;SDS011;5387;48.722;9.110;2022-08-02T12:24:06;3.30;;;3.10;;
10677;SDS011;5387;48.722;9.110;2022-08-02T12:26:39;4.97;;;4.25;;
10677;SDS011;5387;48.722;9.110;2022-08-02T12:29:07;2.78;;;2.58;;
10677;SDS011;5387;48.722;9.110;2022-08-02T12:31:40;3.05;;;2.13;;
10677;SDS011;5387;48.722;9.110;2022-08-02T12:34:12;1.92;;;1.83;;
10677;SDS011;5387;48.722;9.110;2022-08-02T12:36:41;2.22;;;2.13;;
10677;SDS011;5387;48.722;9.110;2022-08-02T12:39:12;2.40;;;2.20;;
10677;SDS011;5387;48.722;9.110;2022-08-02T12:41:39;2.17;;;1.95;;
10677;SDS011;5387;48.722;9.110;2022-08-02T12:44:15;2.10;;;2.00;;
10677;SDS011;5387;48.722;9.110;2022-08-02T12:46:44;2.13;;;2.03;;
10677;SDS011;5387;48.722;9.110;2022-08-02T12:49:24;2.70;;;2.50;;
10677;SDS011;5387;48.722;9.110;2022-08-02T12:51:51;2.80;;;2.40;;
10677;SDS011;5387;48.722;9.110;2022-08-02T12:54:18;2.30;;;2.10;;
10677;SDS011;5387;48.722;9.110;2022-08-02T12:56:47;2.10;;;2.00;;
10677;SDS011;5387;48.722;9.110;2022-08-02T12:59:15;1.92;;;1.83;;
10677;SDS011;5387;48.722;9.110;2022-08-02T13:01:43;2.63;;;2.42;;
10677;SDS011;5387;48.722;9.110;2022-08-02T13:04:12;2.80;;;2.60;;
10677;SDS011;5387;48.722;9.110;2022-08-02T13:06:39;4.65;;;2.88;;
10677;SDS011;5387;48.722;9.110;2022-08-02T13:09:13;5.20;;;3.10;;
10677;SDS011;5387;48.722;9.110;2022-08-02T13:11:40;3.00;;;2.70;;
10677;SDS011;5387;48.722;9.110;2022-08-02T13:14:08;4.05;;;2.35;;
10677;SDS011;5387;48.722;9.110;2022-08-02T13:16:34;2.65;;;2.45;;
10677;SDS011;5387;48.722;9.110;2022-08-02T13:19:02;2.20;;;2.10;;
10677;SDS011;5387;48.722;9.110;2022-08-02T13:21:29;2.05;;;1.95;;
10677;SDS011;5387;48.722;9.110;2022-08-02T13:23:56;2.38;;;2.17;;
10677;SDS011;5387;48.722;9.110;2022-08-02T13:26:23;2.50;;;2.35;;
10677;SDS011;5387;48.722;9.110;2022-08-02T13:28:50;2.47;;;2.28;;
10677;SDS011;5387;48.722;9.110;2022-08-02T13:31:17;2.53;;;2.40;;
10677;SDS011;5387;48.722;9.110;2022-08-02T13:33:44;2.45;;;2.28;;
10677;SDS011;5387;48.722;9.110;2022-08-02T13:36:12;2.72;;;2.50;;
10677;SDS011;5387;48.722;9.110;2022-08-02T13:38:39;2.50;;;2.40;;
10677;SDS011;5387;48.722;9.110;2022-08-02T13:41:06;2.42;;;2.22;;
10677;SDS011;5387;48.722;9.110;2022-08-02T13:43:38;2.60;;;2.40;;
10677;SDS011;5387;48.722;9.110;2022-08-02T13:46:06;2.30;;;2.10;;
10677;SDS011;5387;48.722;9.110;2022-08-02T13:48:33;2.47;;;2.20;;
10677;SDS011;5387;48.722;9.110;2022-08-02T13:51:00;3.80;;;2.10;;
10677;SDS011;5387;48.722;9.110;2022-08-02T13:53:28;3.40;;;2.40;;
10677;SDS011;5387;48.722;9.110;2022-08-02T13:55:55;2.55;;;2.42;;
10677;SDS011;5387;48.722;9.110;2022-08-02T13:58:23;2.70;;;2.50;;
10677;SDS011;5387;48.722;9.110;2022-08-02T14:00:49;3.30;;;2.35;;
10677;SDS011;5387;48.722;9.110;2022-08-02T14:03:16;2.75;;;2.53;;
10677;SDS011;5387;48.722;9.110;2022-08-02T14:05:43;4.65;;;2.78;;
10677;SDS011;5387;48.722;9.110;2022-08-02T14:08:10;2.85;;;2.65;;
10677;SDS011;5387;48.722;9.110;2022-08-02T14:10:38;3.47;;;2.85;;
10677;SDS011;5387;48.722;9.110;2022-08-02T14:13:05;3.13;;;2.92;;
10677;SDS011;5387;48.722;9.110;2022-08-02T14:15:32;4.22;;;3.03;;
10677;SDS011;5387;48.722;9.110;2022-08-02T14:17:59;3.33;;;3.13;;
10677;SDS011;5387;48.722;9.110;2022-08-02T14:20:26;3.20;;;3.00;;
10677;SDS011;5387;48.722;9.110;2022-08-02T14:22:53;3.50;;;3.20;;
10677;SDS011;5387;48.722;9.110;2022-08-02T14:25:20;3.05;;;2.85;;
10677;SDS011;5387;48.722;9.110;2022-08-02T14:27:48;6.35;;;3.15;;
10677;SDS011;5387;48.722;9.110;2022-08-02T14:30:15;3.08;;;2.88;;
10677;SDS011;5387;48.722;9.110;2022-08-02T14:32:42;3.30;;;3.10;;
10677;SDS011;5387;48.722;9.110;2022-08-02T14:35:09;3.22;;;3.03;;
10677;SDS011;5387;48.722;9.110;2022-08-02T14:37:36;3.05;;;2.85;;
10677;SDS011;5387;48.722;9.110;2022-08-02T14:40:04;2.80;;;2.60;;
10677;SDS011;5387;48.722;9.110;2022-08-02T14:42:31;3.10;;;2.90;;
10677;SDS011;5387;48.722;9.110;2022-08-02T14:44:59;5.38;;;3.00;;
10677;SDS011;5387;48.722;9.110;2022-08-02T14:47:26;3.17;;;2.97;;
10677;SDS011;5387;48.722;9.110;2022-08-02T14:49:53;3.10;;;2.90;;
10677;SDS011;5387;48.722;9.110;2022-08-02T14:52:20;2.60;;;2.50;;
10677;SDS011;5387;48.722;9.110;2022-08-02T14:54:47;3.20;;;3.00;;
10677;SDS011;5387;48.722;9.110;2022-08-02T14:57:14;2.97;;;2.80;;
10677;SDS011;5387;48.722;9.110;2022-08-02T14:59:41;3.10;;;2.90;;
10677;SDS011;5387;48.722;9.110;2022-08-02T15:02:10;3.42;;;2.65;;
10677;SDS011;5387;48.722;9.110;2022-08-02T15:04:36;3.05;;;2.70;;
10677;SDS011;5387;48.722;9.110;2022-08-02T15:07:03;2.67;;;2.47;;
10677;SDS011;5387;48.722;9.110;2022-08-02T15:09:31;2.53;;;2.33;;
10677;SDS011;5387;48.722;9.110;2022-08-02T15:11:57;2.45;;;2.35;;
10677;SDS011;5387;48.722;9.110;2022-08-02T15:14:24;2.67;;;2.47;;
10677;SDS011;5387;48.722;9.110;2022-08-02T15:16:51;2.65;;;2.55;;
10677;SDS011;5387;48.722;9.110;2022-08-02T15:19:20;2.60;;;2.40;;
10677;SDS011;5387;48.722;9.110;2022-08-02T15:21:48;2.30;;;2.17;;
10677;SDS011;5387;48.722;9.110;2022-08-02T15:24:15;4.30;;;2.92;;
10677;SDS011;5387;48.722;9.110;2022-08-02T15:26:41;2.40;;;2.30;;